Douglas Observed Data For Previous 48 Hours

Caption
Day and Hour Reservoir Elevation (behind dam)* Tailwater Elevation (below dam)* Average Hourly Discharge*
3/18/2019 2 AM EDT 976.26 877.01 23,962
3/18/2019 3 AM EDT 976.21 877.03 23,964
3/18/2019 4 AM EDT 976.18 876.99 23,923
3/18/2019 5 AM EDT 976.14 877.06 23,952
3/18/2019 6 AM EDT 976.09 877.06 23,945
3/18/2019 7 AM EDT 976.04 876.98 23,941
3/18/2019 8 AM EDT 976.00 877.04 23,942
3/18/2019 9 AM EDT 976.04 873.35 17,943
3/18/2019 10 AM EDT 976.07 869.88 1,262
3/18/2019 11 AM EDT 976.06 868.91 0
3/18/2019 12 PM EDT 976.05 872.67 3,407
3/18/2019 1 PM EDT 976.09 875.23 14,514
3/18/2019 2 PM EDT 976.09 876.11 16,453
3/18/2019 3 PM EDT 976.06 876.17 20,201
3/18/2019 4 PM EDT 976.00 876.14 20,207
3/18/2019 5 PM EDT 975.99 876.14 20,211
3/18/2019 6 PM EDT 975.95 876.15 20,192
3/18/2019 7 PM EDT 975.91 876.20 20,193
3/18/2019 8 PM EDT 975.86 876.19 20,166
3/18/2019 9 PM EDT 975.85 876.14 20,141
3/18/2019 10 PM EDT 975.83 876.17 20,163
3/18/2019 11 PM EDT 975.78 876.15 20,151
3/19/2019 12 AM EDT 975.75 876.11 20,153
3/19/2019 1 AM EDT 975.73 876.17 20,147
3/19/2019 2 AM EDT 975.70 876.14 20,145
3/19/2019 3 AM EDT 975.66 876.20 20,143
3/19/2019 4 AM EDT 975.63 876.14 20,148
3/19/2019 5 AM EDT 975.61 876.21 20,113
3/19/2019 6 AM EDT 975.57 876.13 20,137
3/19/2019 7 AM EDT 975.53 876.20 20,141
3/19/2019 8 AM EDT 975.49 876.15 20,152
3/19/2019 9 AM EDT 975.47 876.16 20,128
3/19/2019 10 AM EDT 975.44 876.18 20,141
3/19/2019 11 AM EDT 975.39 876.13 20,156
3/19/2019 12 PM EDT 975.35 876.20 20,144
3/19/2019 1 PM EDT 975.32 876.14 20,125
3/19/2019 2 PM EDT 975.28 876.15 20,155
3/19/2019 3 PM EDT 975.24 876.18 20,151
3/19/2019 4 PM EDT 975.21 876.11 20,134
3/19/2019 5 PM EDT 975.18 876.18 20,117
3/19/2019 6 PM EDT 975.14 876.14 20,127
3/19/2019 7 PM EDT 975.10 876.12 20,126
3/19/2019 8 PM EDT 975.07 876.13 20,114
3/19/2019 9 PM EDT 975.03 876.11 20,096
3/19/2019 10 PM EDT 974.99 876.16 20,116
3/19/2019 11 PM EDT 974.96 876.17 20,118
3/20/2019 12 AM EDT 974.93 876.13 20,110
3/20/2019 1 AM EDT 974.89 876.15 20,096
3/20/2019 2 AM EDT 974.85 876.17 20,088
3/20/2019 3 AM EDT 974.82 876.20 20,079
3/20/2019 4 AM EDT 974.78 876.12 20,084
3/20/2019 5 AM EDT 974.74 876.13 20,051
3/20/2019 6 AM EDT 974.71 876.14 20,058
3/20/2019 7 AM EDT 974.66 876.14 20,063
3/20/2019 8 AM EDT 974.63 876.19 20,057
3/20/2019 9 AM EDT 974.59 876.14 20,055

Elevations are in feet above sea level. Discharges are in cubic feet per second and are reported at the end of the hour.